CheckWX is a tool to help pilots better visualize weather data.  It is not intended as a substitute for an official pre-flight weather briefing.

03:53:16 UTC

KAXH METAR
Houston-Southwest Airport
Houston, Texas, USA
Current

18 mins ago

KAXH 270335Z AUTO 15004KT 10SM CLR 24/22 A3001 RMK AO2 T02350221
Observed
May-27 @ 03:35 UTC
Wind
  • 150° at 4 KTS
Visibility
10 SM
Flight Rules
VFR
Cloud Levels
  • Clear skies
Temperature
24°C / 75°F
Dewpoint
22°C / 72°F
Humidity
89%
Altimeter
30.01" Hg
Pressure
1016.22 hPa
Previous

38 mins ago

KAXH 270315Z AUTO 13003KT 10SM CLR 24/22 A3002 RMK AO2 T02370224
Observed
May-27 @ 03:15 UTC
Wind
  • 130° at 3 KTS
Visibility
10 SM
Flight Rules
VFR
Cloud Levels
  • Clear skies
Temperature
24°C / 75°F
Dewpoint
22°C / 72°F
Humidity
89%
Altimeter
30.02" Hg
Pressure
1016.62 hPa
Previous

58 mins ago

KAXH 270255Z AUTO 13004KT 10SM CLR 24/23 A3002 RMK AO2 T02400225
Observed
May-27 @ 02:55 UTC
Wind
  • 130° at 4 KTS
Visibility
10 SM
Flight Rules
VFR
Cloud Levels
  • Clear skies
Temperature
24°C / 75°F
Dewpoint
23°C / 73°F
Humidity
94%
Altimeter
30.02" Hg
Pressure
1016.62 hPa